Aeroporto :
LOGIN :

Iscrizione | Disclaimer

   EN    FR    IT 

 










Sommario :    VFR   VFR Marginale   IFR   IFR Intensivo   IFR Molto Intensivo
Visibilità : 
Base nubi : 
>= 8 km
>= 3000ft
5 / 8 km
1000 / 3000 ft
1500m / 5 km
500 / 1000 ft
800 / 1500m
200 / 500 ft
< 800m
< 200 ft
Simboli :   Temporali  Nebbia  Neve Forte  Precipitazioni Forti  Vento > 20 kt
SIGMETs :   Varie  Temporali  Ghiacco  Turbolenza  Onda orograficha  Ceneri Vulcaniche






- Altitudine del aeroporto : 113 ft


EKRS - Ringsted

ULTIMO METAR :
  • 240520Z AUTO 11004KT 000V180 9999 BKN017/// OVC025/// 04/04 Q1007

METARs OBSOLETI :
  • 240450Z AUTO 10004KT 9999 BKN018/// BKN027/// 03/03 Q1007
  • 240420Z AUTO 10004KT 050V120 9999 FEW011/// SCT020/// BKN029/// 03/03 Q1007
  • 240350Z AUTO 10006KT 070V130 9999 UP FEW010/// BKN017/// OVC036/// 03/03 Q1007
  • 240320Z AUTO 10008KT 070V140 9999 -RA SCT016/// BKN019/// BKN024/// 03/03 Q1007
  • 240250Z AUTO 10006KT 9999 OVC033/// 03/03 Q1007
  • 240220Z AUTO 11005KT 080V140 9999 -DZ OVC026/// 03/03 Q1008
  • 240150Z AUTO 11005KT 010V170 9999 UP OVC026/// 03/03 Q1008
  • 240120Z AUTO VRB04KT 9999 BKN029/// OVC034/// 03/03 Q1008
  • 240050Z AUTO VRB05KT 9999 -DZ FEW019/// OVC031/// 03/03 Q1008

TAF N/A



MetMap, La meteo Aeronautica in un colpo d'occhio ! - Copyright ORBIFLY Dicembre 2007 - Disclaimer

ORBIFLY MET'MAP TEAM :

Programmazione e sviluppo : Alexandra Zaïnal
Concezione : Baudouin d'Aumeries
Supporto tecnico e logistico : Manuel Goepfert
Aiuto : Marc-Olivier Méhu
Aiuto per la traduzione : Arnaldo La Scala




FONTI E CREDITI :

   NOAA